Time;durP1;ratioP1;P1;durP2;ratioP2;P2;SDS_P1;SDS_P2;PMS_P1;PMS_P2;Temp;Humidity;BMP_temperature;BMP_pressure;BME280_temperature;BME280_humidity;BME280_pressure;Samples;Min_cycle;Max_cycle;Signal;HPM_P1;HPM_P2
2022/12/12 00:00:25;;;;;;;11.52;5.45;;;;;;;3.20;57.72;96514.91;4972089;28;20025;-75
2022/12/12 00:02:50;;;;;;;11.88;5.47;;;;;;;3.12;58.64;96513.41;4997969;28;20136;-75
2022/12/12 00:05:18;;;;;;;14.35;5.75;;;;;;;3.13;59.01;96516.75;4972728;28;20058;-75
2022/12/12 00:07:43;;;;;;;15.10;6.38;;;;;;;3.08;58.77;96507.09;4988501;28;20066;-75
2022/12/12 00:10:09;;;;;;;12.98;5.63;;;;;;;3.12;58.37;96515.16;4972347;28;20758;-75
2022/12/12 00:12:34;;;;;;;12.70;6.25;;;;;;;3.10;58.73;96514.59;4972525;28;20029;-75
2022/12/12 00:15:00;;;;;;;13.80;6.43;;;;;;;3.15;58.91;96512.97;4972506;28;20020;-75
2022/12/12 00:17:26;;;;;;;12.50;6.05;;;;;;;3.10;58.58;96512.03;4971584;28;20020;-75
2022/12/12 00:19:51;;;;;;;16.42;6.30;;;;;;;3.08;59.01;96509.66;4988624;28;20436;-75
2022/12/12 00:22:16;;;;;;;14.60;5.88;;;;;;;3.07;58.66;96509.88;4990610;28;20056;-75
2022/12/12 00:24:42;;;;;;;12.40;5.68;;;;;;;3.09;58.83;96507.91;4990641;28;20039;-75
2022/12/12 00:27:07;;;;;;;12.60;6.18;;;;;;;3.03;59.31;96509.50;4988468;28;20094;-75
2022/12/12 00:29:33;;;;;;;13.40;5.28;;;;;;;3.10;58.74;96505.13;4955398;28;20591;-75
2022/12/12 00:31:58;;;;;;;11.77;5.50;;;;;;;3.09;58.56;96513.81;4958532;28;20078;-75
2022/12/12 00:34:23;;;;;;;14.63;6.70;;;;;;;3.05;58.39;96504.16;5008526;28;20024;-75
2022/12/12 00:36:50;;;;;;;13.10;5.28;;;;;;;3.09;58.65;96506.09;4991681;28;20027;-75
2022/12/12 00:39:16;;;;;;;13.18;5.03;;;;;;;3.10;58.31;96505.13;5008485;28;20024;-75
2022/12/12 00:41:41;;;;;;;12.07;5.32;;;;;;;3.16;58.02;96514.53;4959882;28;20789;-75
2022/12/12 00:44:07;;;;;;;15.73;6.53;;;;;;;3.26;57.77;96515.84;5003562;28;20622;-75
2022/12/12 00:46:32;;;;;;;13.20;6.05;;;;;;;3.16;58.30;96509.41;4993919;28;20811;-75
2022/12/12 00:48:58;;;;;;;13.35;5.75;;;;;;;3.19;57.84;96508.19;4992263;28;20040;-75
2022/12/12 00:51:25;;;;;;;11.30;5.25;;;;;;;3.13;58.04;96509.03;4992346;28;20618;-75
2022/12/12 00:53:51;;;;;;;12.13;6.20;;;;;;;3.15;58.41;96510.41;5007292;28;20012;-75
2022/12/12 00:56:18;;;;;;;14.95;6.40;;;;;;;3.17;58.21;96513.56;4994924;28;20036;-75
2022/12/12 00:58:44;;;;;;;11.02;5.35;;;;;;;3.17;57.79;96512.75;4976820;28;20035;-75
2022/12/12 01:01:15;;;;;;;17.08;7.47;;;;;;;3.19;57.82;96514.13;4959319;28;20660;-75
2022/12/12 01:03:41;;;;;;;14.00;6.57;;;;;;;3.13;58.14;96512.38;5004963;28;20020;-75
2022/12/12 01:06:07;;;;;;;14.02;5.25;;;;;;;3.13;58.70;96520.09;4978577;28;20020;-75
2022/12/12 01:08:33;;;;;;;11.07;5.20;;;;;;;3.11;58.95;96516.19;5012214;28;20089;-75
2022/12/12 01:10:59;;;;;;;12.52;5.80;;;;;;;3.15;58.84;96520.69;5012529;28;20672;-75
2022/12/12 01:13:25;;;;;;;14.27;6.25;;;;;;;3.13;59.25;96527.81;4995317;28;20698;-75
2022/12/12 01:15:50;;;;;;;13.48;6.22;;;;;;;3.08;59.04;96517.38;5013480;28;20036;-75
2022/12/12 01:18:16;;;;;;;12.65;5.70;;;;;;;3.09;58.96;96518.97;4994841;28;20043;-75
2022/12/12 01:20:41;;;;;;;13.10;5.13;;;;;;;3.09;58.45;96523.34;5012056;28;20101;-75
2022/12/12 01:23:07;;;;;;;15.52;5.97;;;;;;;3.03;58.51;96527.53;4978193;28;20060;-75
2022/12/12 01:25:32;;;;;;;16.23;6.30;;;;;;;3.08;57.86;96524.31;5012241;28;20059;-75
2022/12/12 01:27:58;;;;;;;12.57;5.60;;;;;;;3.06;57.78;96534.03;5011675;28;20725;-75
2022/12/12 01:30:24;;;;;;;14.90;5.78;;;;;;;3.03;58.00;96529.31;4978151;28;20185;-75
2022/12/12 01:32:50;;;;;;;12.02;4.93;;;;;;;3.04;58.29;96534.25;5001963;28;20742;-75
2022/12/12 01:35:15;;;;;;;10.20;4.80;;;;;;;3.04;58.32;96536.81;4958569;28;20439;-75
2022/12/12 01:37:41;;;;;;;12.85;5.60;;;;;;;3.00;58.56;96544.16;4991043;28;20150;-75
2022/12/12 01:40:13;;;;;;;13.38;6.10;;;;;;;3.11;58.56;96541.91;4991191;28;20332;-75
2022/12/12 01:42:38;;;;;;;13.45;5.15;;;;;;;2.92;58.67;96538.50;4997938;28;20115;-75
2022/12/12 01:45:05;;;;;;;13.40;5.15;;;;;;;2.82;58.59;96533.84;4994460;28;20119;-75
2022/12/12 01:47:30;;;;;;;14.40;5.85;;;;;;;2.76;58.82;96532.91;5011256;28;20055;-75
2022/12/12 01:50:05;;;;;;;19.33;6.65;;;;;;;2.94;58.54;96532.16;4994296;28;20338;-75
2022/12/12 01:52:32;;;;;;;;;;;;;;;2.96;58.38;96543.00;4994175;28;20722;-75
2022/12/12 01:54:58;;;;;;;11.73;5.03;;;;;;;2.83;58.60;96538.00;4977855;28;19919;-75
2022/12/12 01:57:37;;;;;;;11.07;4.82;;;;;;;2.91;58.66;96536.94;5010463;28;20139;-75
2022/12/12 02:00:06;;;;;;;11.02;4.75;;;;;;;2.79;58.54;96540.19;5010859;28;20024;-75
2022/12/12 02:02:31;;;;;;;13.52;4.72;;;;;;;2.75;57.81;96533.88;4990147;28;20813;-75
2022/12/12 02:04:59;;;;;;;11.95;5.43;;;;;;;2.78;58.45;96538.63;5009469;28;20024;-75
2022/12/12 02:07:24;;;;;;;11.02;4.95;;;;;;;2.56;58.19;96533.03;4990558;28;20324;-75
2022/12/12 02:09:50;;;;;;;13.80;5.85;;;;;;;2.46;58.60;96537.84;4998052;28;20035;-75
2022/12/12 02:12:15;;;;;;;12.18;5.30;;;;;;;2.53;57.83;96535.25;5006293;28;20476;-75
2022/12/12 02:14:44;;;;;;;11.45;4.70;;;;;;;2.55;57.83;96543.53;5001057;28;20366;-75
2022/12/12 02:17:25;;;;;;;13.27;4.93;;;;;;;2.34;58.34;96540.31;4994035;28;20028;-74
2022/12/12 02:20:17;;;;;;;11.52;4.55;;;;;;;2.43;58.03;96548.53;5011106;28;20242;-75
2022/12/12 02:23:07;;;;;;;11.85;5.07;;;;;;;2.46;58.00;96540.44;4984663;28;20074;-75
2022/12/12 02:25:51;;;;;;;13.07;4.78;;;;;;;2.29;58.33;96545.28;5008665;28;20112;-75
2022/12/12 02:28:34;;;;;;;11.45;5.05;;;;;;;2.40;58.54;96539.47;4999309;28;20028;-75
2022/12/12 02:31:27;;;;;;;10.15;4.63;;;;;;;2.34;58.71;96542.09;5008279;28;20020;-75
2022/12/12 02:33:58;;;;;;;12.15;4.80;;;;;;;2.14;58.53;96537.06;4996374;28;20127;-75
2022/12/12 02:36:35;;;;;;;13.35;4.75;;;;;;;2.33;58.20;96550.78;4993352;28;20028;-75
2022/12/12 02:39:22;;;;;;;13.52;5.10;;;;;;;2.29;58.68;96545.28;5009527;28;20085;-75
2022/12/12 02:41:55;;;;;;;13.68;5.22;;;;;;;2.13;58.39;96556.06;5008954;28;20681;-75
2022/12/12 02:44:25;;;;;;;13.95;5.35;;;;;;;1.99;58.41;96547.63;4963296;28;20709;-75
2022/12/12 02:47:05;;;;;;;13.75;5.05;;;;;;;2.09;58.35;96549.72;4990181;28;20039;-75
2022/12/12 02:49:44;;;;;;;9.68;4.25;;;;;;;2.05;58.45;96550.13;4974876;28;20144;-75
2022/12/12 02:52:10;;;;;;;11.25;5.10;;;;;;;1.83;58.51;96549.66;4958263;28;20052;-75
2022/12/12 02:54:35;;;;;;;13.45;5.53;;;;;;;1.75;58.91;96541.38;5010439;28;20347;-75
2022/12/12 02:57:01;;;;;;;8.38;4.07;;;;;;;1.74;58.95;96545.75;5009895;28;20030;-75
2022/12/12 02:59:36;;;;;;;10.30;4.68;;;;;;;1.82;58.82;96555.00;5009107;28;20028;-76
2022/12/12 03:02:29;;;;;;;11.32;4.65;;;;;;;1.85;58.79;96541.75;4975742;28;20073;-75
2022/12/12 03:08:28;;;;;;;10.55;4.68;;;;;;;1.79;59.78;96545.91;5008959;28;20369;-75
2022/12/12 03:10:56;;;;;;;10.57;4.43;;;;;;;1.59;59.35;96545.19;5002670;28;20313;-75
2022/12/12 03:13:31;;;;;;;10.68;5.28;;;;;;;1.54;59.23;96542.44;4990323;28;20025;-74
2022/12/12 03:16:08;;;;;;;10.15;4.80;;;;;;;1.52;59.25;96545.22;5006114;28;20031;-75
2022/12/12 03:18:55;;;;;;;11.55;5.28;;;;;;;1.50;59.82;96544.63;5010333;28;20782;-75
2022/12/12 03:21:36;;;;;;;11.98;4.43;;;;;;;1.46;59.46;96543.47;5010166;28;20099;-75
2022/12/12 03:24:06;;;;;;;12.32;4.90;;;;;;;1.35;59.96;96542.28;5010076;28;20097;-75
2022/12/12 03:26:43;;;;;;;10.82;3.83;;;;;;;1.33;59.68;96540.94;5006173;28;20033;-75
2022/12/12 03:29:12;;;;;;;12.77;5.53;;;;;;;1.27;59.74;96551.00;4973421;28;20329;-75
2022/12/12 03:31:41;;;;;;;11.65;4.78;;;;;;;1.23;59.65;96537.00;4973447;28;20032;-75
2022/12/12 03:34:11;;;;;;;8.20;4.18;;;;;;;1.20;59.28;96537.41;4990339;28;20089;-75
2022/12/12 03:36:41;;;;;;;14.68;5.78;;;;;;;1.15;59.80;96534.66;4976293;28;20024;-75
2022/12/12 03:39:24;;;;;;;12.13;5.10;;;;;;;1.25;59.64;96541.91;4969697;28;20118;-75
2022/12/12 03:42:11;;;;;;;12.88;5.30;;;;;;;1.12;59.91;96537.63;5001953;28;20475;-75
2022/12/12 03:44:43;;;;;;;10.38;5.38;;;;;;;1.12;59.83;96537.63;5003749;28;20977;-75
2022/12/12 03:47:36;;;;;;;12.40;6.25;;;;;;;1.13;59.29;96541.75;4988935;28;20931;-75
2022/12/12 03:50:12;;;;;;;11.98;4.30;;;;;;;1.03;60.04;96544.72;5011362;28;20848;-75
2022/12/12 03:52:43;;;;;;;10.05;4.78;;;;;;;1.02;60.08;96550.84;4975760;28;20742;-75
2022/12/12 03:55:16;;;;;;;12.55;4.15;;;;;;;0.97;59.72;96557.56;4981304;28;20638;-75
2022/12/12 03:57:50;;;;;;;13.43;4.68;;;;;;;0.84;59.78;96554.00;4983403;28;20096;-75
2022/12/12 04:00:17;;;;;;;40.45;14.98;;;;;;;0.65;59.85;96558.16;4983968;28;20097;-75
2022/12/12 04:03:00;;;;;;;22.65;9.57;;;;;;;0.62;60.93;96555.97;4983316;28;20131;-75
2022/12/12 04:06:25;;;;;;;23.70;8.98;;;;;;;0.74;60.74;96551.06;4970279;28;20623;-75
2022/12/12 04:08:29;;;;;;;23.50;9.38;;;;;;;0.66;59.85;96551.25;4989619;28;20715;-76
2022/12/12 04:14:23;;;;;;;19.15;6.85;;;;;;;0.62;59.93;96552.59;4988266;28;20343;-75
2022/12/12 04:16:51;;;;;;;18.15;6.93;;;;;;;0.62;59.99;96550.84;4987189;28;20261;-75
2022/12/12 04:25:09;;;;;;;18.50;6.93;;;;;;;0.45;60.71;96554.78;5003891;28;20718;-75
2022/12/12 04:27:40;;;;;;;15.43;7.43;;;;;;;0.54;60.48;96558.72;4990939;28;20280;-75
2022/12/12 04:30:08;;;;;;;18.58;7.43;;;;;;;0.39;60.58;96553.00;4985638;28;20228;-75
2022/12/12 04:32:55;;;;;;;20.88;7.40;;;;;;;0.47;60.26;96556.16;4967235;28;20264;-75
2022/12/12 04:35:29;;;;;;;24.40;9.32;;;;;;;0.44;59.28;96568.56;4986030;28;20108;-75
2022/12/12 04:37:57;;;;;;;14.77;6.20;;;;;;;-0.03;59.92;96553.88;4966585;28;20179;-75
2022/12/12 04:40:35;;;;;;;15.35;6.70;;;;;;;0.23;60.00;96561.81;5001163;28;20726;-75
2022/12/12 04:43:32;;;;;;;14.07;5.53;;;;;;;0.28;60.20;96564.59;5005652;28;20278;-75
2022/12/12 04:46:01;;;;;;;16.88;6.75;;;;;;;0.23;60.19;96566.94;4968024;28;20639;-75
2022/12/12 04:48:45;;;;;;;14.82;6.47;;;;;;;0.28;59.83;96565.38;4967257;28;20218;-75
2022/12/12 04:51:13;;;;;;;14.73;6.40;;;;;;;0.20;60.11;96563.00;4983191;28;20269;-75
2022/12/12 04:53:46;;;;;;;12.57;5.88;;;;;;;0.19;60.21;96566.56;4983966;28;20185;-75
2022/12/12 04:56:13;;;;;;;13.40;5.00;;;;;;;0.32;59.41;96568.34;4982973;28;20268;-75
2022/12/12 04:58:39;;;;;;;12.80;5.30;;;;;;;0.25;59.07;96570.09;4983207;28;20253;-75
2022/12/12 05:01:14;;;;;;;12.15;5.22;;;;;;;0.17;59.61;96573.59;4950964;28;20274;-75
2022/12/12 05:03:50;;;;;;;12.95;4.55;;;;;;;0.08;59.94;96574.78;4995377;28;20243;-75
2022/12/12 05:06:19;;;;;;;11.43;5.30;;;;;;;0.10;59.96;96571.03;4978811;28;20279;-75
2022/12/12 05:08:49;;;;;;;11.40;4.57;;;;;;;0.07;59.81;96573.19;4983558;28;20187;-75
2022/12/12 05:11:17;;;;;;;10.80;5.40;;;;;;;-0.04;60.09;96583.00;5000402;28;20270;-75
2022/12/12 05:13:43;;;;;;;9.40;4.95;;;;;;;-0.03;59.94;96571.00;4985082;28;20280;-75
2022/12/12 05:16:21;;;;;;;12.10;5.10;;;;;;;0.06;60.01;96590.31;4968722;28;20286;-75
2022/12/12 05:18:47;;;;;;;13.90;6.25;;;;;;;-0.06;61.12;96584.19;4983352;28;20315;-75
2022/12/12 05:21:13;;;;;;;11.13;5.28;;;;;;;-0.16;60.22;96576.84;4967224;28;20276;-75
2022/12/12 05:23:38;;;;;;;11.82;4.82;;;;;;;-0.12;60.17;96577.25;4991621;28;20620;-75
2022/12/12 05:26:27;;;;;;;15.52;6.57;;;;;;;-0.01;60.41;96579.28;4986108;28;20224;-75
2022/12/12 05:28:52;;;;;;;12.98;5.30;;;;;;;-0.18;60.50;96585.72;4989541;28;20662;-75
2022/12/12 05:31:18;;;;;;;12.88;5.38;;;;;;;-0.19;59.66;96590.00;5004497;28;20193;-75
2022/12/12 05:33:43;;;;;;;10.88;5.50;;;;;;;-0.26;59.48;96590.00;5009023;28;20200;-75
2022/12/12 05:36:09;;;;;;;15.65;6.53;;;;;;;-0.32;59.68;96585.63;4972823;28;20282;-75
2022/12/12 05:38:34;;;;;;;11.80;5.70;;;;;;;-0.36;59.52;96589.56;5006648;28;20238;-75
2022/12/12 05:41:00;;;;;;;14.38;6.13;;;;;;;-0.40;59.67;96583.22;4986427;28;20238;-75
2022/12/12 05:43:27;;;;;;;15.18;6.50;;;;;;;-0.40;59.91;96591.69;4986193;28;20194;-75
2022/12/12 05:45:52;;;;;;;14.55;5.57;;;;;;;-0.47;60.10;96583.19;4986200;28;20229;-75
2022/12/12 05:48:17;;;;;;;13.25;4.88;;;;;;;-0.45;59.69;96590.69;4969971;28;20175;-75
2022/12/12 05:50:43;;;;;;;15.48;6.25;;;;;;;-0.44;60.38;96584.59;4986293;28;20189;-75
2022/12/12 05:53:09;;;;;;;11.70;5.63;;;;;;;-0.48;59.80;96588.50;4986622;28;20272;-75
2022/12/12 05:55:34;;;;;;;11.57;4.80;;;;;;;-0.49;59.59;96594.59;4985795;28;20240;-75
2022/12/12 05:58:00;;;;;;;11.23;4.70;;;;;;;-0.57;59.50;96588.66;4969963;28;20281;-75
2022/12/12 06:00:25;;;;;;;13.30;5.45;;;;;;;-0.55;60.07;96598.69;4968952;28;20677;-75
2022/12/12 06:02:51;;;;;;;14.18;5.72;;;;;;;-0.55;60.22;96600.47;4967993;28;20213;-75
2022/12/12 06:05:16;;;;;;;13.98;5.13;;;;;;;-0.53;60.20;96594.19;4968552;28;20220;-75
2022/12/12 06:07:41;;;;;;;11.60;5.47;;;;;;;-0.45;59.63;96600.91;4977989;28;20721;-75
2022/12/12 06:10:07;;;;;;;10.73;5.13;;;;;;;-0.45;59.43;96595.78;4992217;28;20246;-75
2022/12/12 06:12:32;;;;;;;12.20;5.20;;;;;;;-0.46;59.92;96599.34;5003666;28;20412;-74
2022/12/12 06:14:58;;;;;;;13.20;5.13;;;;;;;-0.50;59.38;96608.34;4995129;28;20280;-75
2022/12/12 06:17:23;;;;;;;16.48;6.72;;;;;;;-0.58;59.82;96604.97;4969459;28;20344;-75
2022/12/12 06:19:49;;;;;;;12.95;5.20;;;;;;;-0.62;59.16;96601.22;4971748;28;20255;-75
2022/12/12 06:22:14;;;;;;;11.68;4.18;;;;;;;-0.69;59.05;96595.25;4987387;28;20344;-75
2022/12/12 06:24:39;;;;;;;10.38;4.43;;;;;;;-0.72;59.51;96605.06;5006626;28;20261;-75
2022/12/12 06:27:05;;;;;;;12.25;5.03;;;;;;;-0.77;59.26;96593.66;4996672;28;20197;-75
2022/12/12 06:29:30;;;;;;;10.98;4.53;;;;;;;-0.81;59.45;96606.97;5026645;28;20220;-75
2022/12/12 06:31:55;;;;;;;13.00;5.20;;;;;;;-0.68;59.26;96608.84;5007998;28;20290;-75
2022/12/12 06:34:21;;;;;;;11.55;4.20;;;;;;;-0.51;59.22;96606.78;4974593;28;20236;-75
2022/12/12 06:36:46;;;;;;;9.02;4.32;;;;;;;-0.38;58.17;96604.28;5007511;28;20171;-75
2022/12/12 06:39:11;;;;;;;11.95;4.22;;;;;;;-0.36;57.91;96610.03;5026644;28;20557;-75
2022/12/12 06:41:37;;;;;;;9.55;3.83;;;;;;;-0.39;57.38;96605.28;5025770;28;20367;-75
2022/12/12 06:44:03;;;;;;;9.65;3.65;;;;;;;-0.53;57.98;96608.72;5004894;28;20167;-75
2022/12/12 06:46:29;;;;;;;10.95;3.70;;;;;;;-0.70;58.39;96609.03;4988502;28;20179;-75
2022/12/12 06:48:55;;;;;;;9.30;4.00;;;;;;;-0.67;58.80;96608.66;4988512;28;20660;-75
2022/12/12 06:51:24;;;;;;;10.23;3.78;;;;;;;-0.64;58.69;96608.28;5004964;28;20680;-75
2022/12/12 06:53:50;;;;;;;8.35;3.78;;;;;;;-0.75;58.80;96608.81;4971747;28;20199;-75
2022/12/12 06:56:18;;;;;;;11.02;4.82;;;;;;;-0.74;59.21;96620.59;4969108;28;20209;-75
2022/12/12 06:58:44;;;;;;;10.75;4.03;;;;;;;-0.78;59.15;96627.84;4983273;28;20195;-75
2022/12/12 07:01:11;;;;;;;11.60;4.60;;;;;;;-0.65;59.15;96624.59;4971911;28;20343;-75
2022/12/12 07:03:37;;;;;;;9.00;4.15;;;;;;;-0.52;59.00;96625.66;5004936;28;20198;-74
2022/12/12 07:06:02;;;;;;;9.95;4.47;;;;;;;-0.59;59.37;96625.63;5004838;28;20202;-75
2022/12/12 07:08:28;;;;;;;8.80;4.00;;;;;;;-0.68;59.92;96627.53;4987517;28;20245;-75
2022/12/12 07:10:54;;;;;;;10.27;4.63;;;;;;;-0.65;59.65;96632.28;4971431;28;20561;-75
2022/12/12 07:13:19;;;;;;;10.25;3.90;;;;;;;-0.65;59.62;96634.81;4987984;28;20160;-74
2022/12/12 07:15:49;;;;;;;14.35;5.15;;;;;;;-0.55;59.54;96652.38;5006197;28;20185;-75
2022/12/12 07:18:16;;;;;;;11.45;4.53;;;;;;;-0.58;59.85;96651.00;5004724;28;20202;-75
2022/12/12 07:20:42;;;;;;;14.50;4.30;;;;;;;-0.49;60.27;96655.97;4987659;28;20277;-74
2022/12/12 07:23:08;;;;;;;12.80;5.40;;;;;;;-0.42;61.30;96649.13;4987772;28;20184;-75
2022/12/12 07:25:36;;;;;;;13.88;5.45;;;;;;;-0.32;60.54;96649.59;4971096;28;20274;-74
2022/12/12 07:28:02;;;;;;;16.27;6.07;;;;;;;-0.27;60.17;96652.38;4987844;28;20242;-74
2022/12/12 07:30:27;;;;;;;18.02;5.78;;;;;;;-0.17;60.75;96659.72;4971531;28;20313;-75
2022/12/12 07:32:52;;;;;;;13.85;6.47;;;;;;;-0.16;60.97;96655.38;4987564;28;20210;-75
2022/12/12 07:35:18;;;;;;;22.48;9.38;;;;;;;-0.09;61.34;96656.97;4987753;28;20194;-75
2022/12/12 07:37:43;;;;;;;41.40;17.40;;;;;;;-0.03;61.57;96655.47;4987084;28;20304;-75
2022/12/12 07:40:09;;;;;;;35.08;13.27;;;;;;;-0.03;61.27;96656.25;4987176;28;20202;-75
2022/12/12 07:42:34;;;;;;;35.70;13.63;;;;;;;0.08;61.26;96652.34;5006044;28;20271;-75
2022/12/12 07:44:59;;;;;;;32.33;13.50;;;;;;;0.12;61.49;96652.75;4995075;28;20197;-75
2022/12/12 07:47:25;;;;;;;29.20;10.88;;;;;;;0.14;62.04;96666.94;5005325;28;20190;-75
2022/12/12 07:49:50;;;;;;;30.15;10.70;;;;;;;0.14;61.62;96677.19;4987613;28;20238;-75
2022/12/12 07:52:15;;;;;;;28.88;12.07;;;;;;;0.20;61.26;96670.50;5024860;28;20232;-74
2022/12/12 07:54:41;;;;;;;24.88;10.25;;;;;;;0.30;61.73;96675.28;4990209;28;20239;-74
2022/12/12 07:57:06;;;;;;;26.10;9.38;;;;;;;0.25;61.61;96675.06;4990670;28;20420;-74
2022/12/12 07:59:32;;;;;;;27.40;11.43;;;;;;;0.28;62.42;96682.38;5007240;28;20628;-75
2022/12/12 08:01:57;;;;;;;37.58;12.27;;;;;;;0.30;62.67;96680.41;5007378;28;20236;-74
2022/12/12 08:04:22;;;;;;;22.27;9.18;;;;;;;0.35;62.31;96683.97;5007412;28;20190;-74
2022/12/12 08:06:48;;;;;;;25.42;9.20;;;;;;;0.46;62.49;96685.19;4990197;28;20182;-74
2022/12/12 08:09:13;;;;;;;21.35;7.93;;;;;;;0.48;62.44;96687.53;4990626;28;20651;-75
2022/12/12 08:11:39;;;;;;;20.77;7.57;;;;;;;0.52;62.76;96684.41;5025534;28;20704;-75
2022/12/12 08:14:08;;;;;;;22.67;8.25;;;;;;;0.64;62.42;96692.34;4973929;28;20185;-75
2022/12/12 08:16:33;;;;;;;20.02;8.57;;;;;;;0.62;62.48;96691.75;4990486;28;20211;-75
2022/12/12 08:18:59;;;;;;;19.23;7.38;;;;;;;0.64;62.75;96702.59;4990280;28;20635;-75
2022/12/12 08:21:25;;;;;;;20.10;7.10;;;;;;;0.72;62.44;96704.19;4973899;28;20322;-74
2022/12/12 08:23:51;;;;;;;22.63;8.27;;;;;;;0.73;62.56;96696.28;4973488;28;20274;-75
2022/12/12 08:26:17;;;;;;;21.15;7.15;;;;;;;0.75;62.29;96696.09;4989678;28;20282;-74
2022/12/12 08:28:44;;;;;;;22.40;8.13;;;;;;;0.76;62.92;96695.13;4990291;28;20600;-75
2022/12/12 08:31:12;;;;;;;23.52;9.15;;;;;;;0.88;62.40;96692.81;5007146;28;20283;-75
2022/12/12 08:33:37;;;;;;;25.35;8.95;;;;;;;0.83;62.54;96695.16;5006823;28;20197;-75
2022/12/12 08:36:23;;;;;;;22.77;9.43;;;;;;;0.85;62.48;96701.66;4990121;28;20189;-74
2022/12/12 08:38:48;;;;;;;24.70;10.43;;;;;;;0.81;63.07;96710.72;5006736;28;20289;-74
2022/12/12 08:41:14;;;;;;;25.90;9.15;;;;;;;0.83;62.89;96705.41;5025422;28;20551;-75
2022/12/12 08:43:40;;;;;;;28.98;8.70;;;;;;;0.84;61.97;96706.97;5006622;28;20188;-75
2022/12/12 08:46:07;;;;;;;23.15;8.43;;;;;;;0.96;62.04;96709.75;4969750;28;20164;-75
2022/12/12 08:48:32;;;;;;;21.63;7.55;;;;;;;0.88;62.34;96716.66;4987143;28;20163;-75
2022/12/12 08:50:58;;;;;;;26.38;9.85;;;;;;;0.84;62.70;96707.78;4994900;28;20287;-75
2022/12/12 08:53:23;;;;;;;29.23;9.38;;;;;;;0.91;63.04;96711.13;5006807;28;20744;-75
2022/12/12 08:55:49;;;;;;;23.80;8.35;;;;;;;0.96;63.25;96715.69;5006531;28;20593;-75
2022/12/12 08:58:14;;;;;;;26.08;9.40;;;;;;;1.03;62.75;96713.13;5006415;28;20276;-75
2022/12/12 09:00:40;;;;;;;28.33;10.07;;;;;;;1.11;61.95;96713.75;5006958;28;20221;-75
2022/12/12 09:03:05;;;;;;;28.35;9.50;;;;;;;1.11;62.08;96711.19;5006457;28;20353;-75
2022/12/12 09:05:31;;;;;;;25.23;9.43;;;;;;;1.07;62.61;96711.75;4990095;28;20283;-75
2022/12/12 09:07:58;;;;;;;25.30;10.85;;;;;;;1.07;62.91;96720.22;4993787;28;20220;-75
2022/12/12 09:10:24;;;;;;;25.42;9.05;;;;;;;1.23;62.41;96715.72;5010459;28;20185;-74
2022/12/12 09:12:49;;;;;;;26.83;10.73;;;;;;;1.17;62.23;96711.38;5010339;28;20284;-75
2022/12/12 09:15:14;;;;;;;25.20;9.50;;;;;;;1.12;62.58;96720.44;5010705;28;20181;-75
2022/12/12 09:17:40;;;;;;;24.90;9.40;;;;;;;1.27;62.98;96734.88;4993259;28;20228;-75
2022/12/12 09:20:06;;;;;;;22.27;8.40;;;;;;;1.42;61.98;96726.97;5010229;28;20255;-75
2022/12/12 09:22:31;;;;;;;19.35;9.73;;;;;;;1.40;62.31;96729.72;4993293;28;20855;-75
2022/12/12 09:24:56;;;;;;;23.98;10.00;;;;;;;1.43;62.25;96731.13;4976758;28;20273;-75
2022/12/12 09:27:22;;;;;;;19.98;7.93;;;;;;;1.44;61.91;96730.94;4993310;28;20193;-75
2022/12/12 09:29:47;;;;;;;20.55;8.25;;;;;;;1.59;61.31;96732.50;4993518;28;20638;-74
2022/12/12 09:32:12;;;;;;;18.92;8.10;;;;;;;1.51;61.79;96730.94;5009846;28;20203;-75
2022/12/12 09:34:38;;;;;;;21.02;7.72;;;;;;;1.46;61.85;96731.53;5028907;28;20184;-75
2022/12/12 09:37:04;;;;;;;18.65;7.38;;;;;;;1.50;61.86;96729.34;5027850;28;20768;-75
2022/12/12 09:39:29;;;;;;;24.42;8.02;;;;;;;1.54;61.72;96730.53;5010141;28;20635;-75
2022/12/12 09:41:55;;;;;;;24.02;9.35;;;;;;;1.55;60.57;96733.91;5009732;28;20124;-75
2022/12/12 09:44:21;;;;;;;24.23;8.70;;;;;;;1.51;60.84;96733.50;4987494;28;20236;-75
2022/12/12 09:46:50;;;;;;;22.88;8.02;;;;;;;1.65;60.24;96724.81;4989972;28;20759;-75
2022/12/12 09:49:36;;;;;;;21.70;8.80;;;;;;;1.61;61.29;96721.06;4973064;28;20210;-74
2022/12/12 09:52:01;;;;;;;;;;;;;;;1.82;61.10;96726.97;5006645;28;20204;-75
2022/12/12 09:54:27;;;;;;;21.15;7.20;;;;;;;1.73;61.53;96725.59;5009744;28;20224;-75
2022/12/12 09:57:03;;;;;;;20.55;7.43;;;;;;;1.82;60.95;96730.31;5008953;28;20250;-75
2022/12/12 09:59:44;;;;;;;24.17;8.70;;;;;;;2.12;59.80;96729.09;4976573;28;20220;-75
2022/12/12 10:02:30;;;;;;;22.33;8.15;;;;;;;2.06;59.71;96721.19;5028109;28;20249;-75
2022/12/12 10:05:28;;;;;;;16.75;7.75;;;;;;;2.28;59.77;96723.53;4992759;28;20128;-75
2022/12/12 10:08:07;;;;;;;28.85;9.57;;;;;;;2.13;60.14;96723.75;4975207;28;20711;-75
2022/12/12 10:10:37;;;;;;;22.67;8.35;;;;;;;2.07;60.36;96716.84;5009168;28;20270;-75
2022/12/12 10:13:05;;;;;;;22.38;9.05;;;;;;;2.00;61.42;96711.72;5009610;28;20197;-75
2022/12/12 10:15:34;;;;;;;24.10;8.63;;;;;;;2.04;61.00;96715.47;5009138;28;20338;-75
2022/12/12 10:18:03;;;;;;;21.63;9.45;;;;;;;2.14;60.68;96706.56;5000292;28;20096;-75
2022/12/12 10:20:31;;;;;;;23.52;8.73;;;;;;;2.43;59.86;96700.94;4957188;28;20362;-75
2022/12/12 10:23:01;;;;;;;21.10;8.20;;;;;;;2.24;59.73;96696.66;4988539;28;20691;-75
2022/12/12 10:25:38;;;;;;;25.00;7.97;;;;;;;2.32;60.25;96703.34;4989281;28;20238;-75
2022/12/12 10:28:13;;;;;;;17.60;8.13;;;;;;;2.51;59.88;96711.97;4972412;28;20294;-75
2022/12/12 10:31:08;;;;;;;22.15;7.57;;;;;;;2.47;59.62;96715.94;4989076;28;20190;-75
2022/12/12 10:33:52;;;;;;;20.10;8.35;;;;;;;2.75;59.38;96716.41;5022407;28;20268;-75
2022/12/12 10:36:17;;;;;;;18.00;8.20;;;;;;;2.57;59.35;96711.16;5021851;28;20210;-75
2022/12/12 10:38:57;;;;;;;18.75;7.88;;;;;;;2.52;59.39;96703.25;5007444;28;20645;-75
2022/12/12 10:41:28;;;;;;;18.25;8.07;;;;;;;2.69;59.48;96706.97;4988557;28;20624;-75
2022/12/12 10:44:04;;;;;;;20.45;8.85;;;;;;;2.77;59.02;96703.34;4971938;28;20074;-75
2022/12/12 10:46:40;;;;;;;17.73;6.72;;;;;;;2.70;59.39;96700.81;4988499;28;20279;-75
2022/12/12 10:49:14;;;;;;;19.55;7.72;;;;;;;2.62;59.15;96694.13;4971717;28;20274;-75
2022/12/12 10:51:39;;;;;;;18.38;8.90;;;;;;;2.46;59.45;96698.94;4995334;28;20172;-76
2022/12/12 10:54:13;;;;;;;17.10;7.22;;;;;;;2.69;59.68;96703.59;4988527;28;20719;-75
2022/12/12 10:57:19;;;;;;;18.83;8.05;;;;;;;2.56;60.18;96701.88;4987828;28;20171;-75
2022/12/12 10:59:56;;;;;;;16.85;6.20;;;;;;;2.63;59.84;96697.47;5009190;28;20154;-75
2022/12/12 11:02:37;;;;;;;20.60;8.07;;;;;;;2.66;60.26;96699.66;4971174;28;20252;-75
2022/12/12 11:05:16;;;;;;;21.27;7.63;;;;;;;2.64;60.46;96691.38;4955816;28;20202;-75
2022/12/12 11:07:46;;;;;;;20.23;7.85;;;;;;;2.64;59.88;96691.38;4971210;28;20234;-74
2022/12/12 11:10:59;;;;;;;19.52;8.00;;;;;;;2.76;59.80;96694.84;4971619;28;20281;-75
2022/12/12 11:13:24;;;;;;;19.13;7.65;;;;;;;2.57;60.18;96685.44;4927020;28;20272;-75
2022/12/12 11:15:57;;;;;;;19.15;7.90;;;;;;;2.58;60.17;96692.94;4926819;28;20259;-75
2022/12/12 11:18:23;;;;;;;22.95;8.77;;;;;;;2.49;60.89;96693.41;4943780;28;20755;-75
2022/12/12 11:20:49;;;;;;;20.85;8.18;;;;;;;2.40;60.54;96691.06;4926913;28;20405;-75
2022/12/12 11:23:17;;;;;;;22.02;8.20;;;;;;;2.38;60.56;96695.63;4926902;28;20170;-75
2022/12/12 11:25:43;;;;;;;19.58;8.48;;;;;;;2.22;61.68;96694.28;4904323;28;20405;-75
2022/12/12 11:28:16;;;;;;;16.65;7.07;;;;;;;2.30;61.99;96695.84;4942594;28;20208;-75
2022/12/12 11:30:42;;;;;;;20.60;8.60;;;;;;;2.32;61.74;96683.59;4910605;28;20209;-75
2022/12/12 11:33:15;;;;;;;18.65;7.15;;;;;;;2.37;61.41;96678.63;4910637;28;20220;-75
2022/12/12 11:35:41;;;;;;;17.45;7.43;;;;;;;2.49;60.59;96685.69;4926334;28;20192;-75
2022/12/12 11:38:19;;;;;;;18.75;7.53;;;;;;;2.62;60.34;96683.84;4926666;28;20213;-75
2022/12/12 11:40:44;;;;;;;15.77;7.63;;;;;;;2.49;60.22;96683.91;4917242;28;20230;-75
2022/12/12 11:43:23;;;;;;;14.90;6.60;;;;;;;2.59;60.43;96688.63;4939756;28;20170;-75
2022/12/12 11:46:02;;;;;;;18.25;6.72;;;;;;;2.61;60.32;96687.41;4909322;28;20331;-75
2022/12/12 11:48:30;;;;;;;18.52;8.20;;;;;;;2.49;60.76;96688.28;5005500;28;20636;-75
2022/12/12 11:50:56;;;;;;;19.92;7.63;;;;;;;2.53;60.64;96684.28;4995455;28;20189;-75
2022/12/12 11:53:21;;;;;;;21.25;8.23;;;;;;;2.43;61.25;96677.00;5007302;28;20245;-75
2022/12/12 11:55:53;;;;;;;16.42;7.05;;;;;;;2.38;61.53;96682.78;4990289;28;20205;-75